Time;durP1;ratioP1;P1;durP2;ratioP2;P2;SDS_P1;SDS_P2;PMS_P1;PMS_P2;Temp;Humidity;BMP_temperature;BMP_pressure;BME280_temperature;BME280_humidity;BME280_pressure;Samples;Min_cycle;Max_cycle;Signal;HPM_P1;HPM_P2
2021/10/06 00:00:16;;;;;;;9.37;2.40;;;;;;;;;;5043508;28;20186;-75
2021/10/06 00:02:41;;;;;;;6.37;2.40;;;;;;;;;;5046656;28;20205;-75
2021/10/06 00:05:07;;;;;;;6.23;2.70;;;;;;;;;;5044100;28;20184;-75
2021/10/06 00:07:32;;;;;;;11.33;3.80;;;;;;;;;;5046905;28;20592;-75
2021/10/06 00:09:57;;;;;;;7.87;3.23;;;;;;;;;;5040615;28;20209;-76
2021/10/06 00:12:22;;;;;;;5.57;2.90;;;;;;;;;;5038066;28;20205;-75
2021/10/06 00:14:47;;;;;;;5.87;3.00;;;;;;;;;;5046048;28;20249;-76
2021/10/06 00:17:13;;;;;;;4.53;2.70;;;;;;;;;;5045859;28;20212;-74
2021/10/06 00:19:38;;;;;;;8.87;2.33;;;;;;;;;;5051147;28;20181;-73
2021/10/06 00:22:03;;;;;;;6.33;2.40;;;;;;;;;;5028140;28;20268;-73
2021/10/06 00:24:28;;;;;;;6.33;2.80;;;;;;;;;;5051956;28;20256;-76
2021/10/06 00:26:54;;;;;;;6.33;2.30;;;;;;;;;;5051805;28;20212;-73
2021/10/06 00:29:19;;;;;;;5.40;2.47;;;;;;;;;;5045560;28;20662;-75
2021/10/06 00:31:44;;;;;;;6.37;1.90;;;;;;;;;;5044455;28;20205;-75
2021/10/06 00:34:09;;;;;;;7.77;2.60;;;;;;;;;;5051006;28;20186;-75
2021/10/06 00:36:34;;;;;;;6.13;2.10;;;;;;;;;;5050332;28;20166;-75
2021/10/06 00:39:00;;;;;;;6.07;2.13;;;;;;;;;;5052582;28;20287;-75
2021/10/06 00:41:25;;;;;;;5.43;2.40;;;;;;;;;;5049792;28;20260;-75
2021/10/06 00:43:50;;;;;;;6.43;2.70;;;;;;;;;;5033721;28;20181;-75
2021/10/06 00:46:15;;;;;;;6.23;2.10;;;;;;;;;;5052415;28;20174;-75
2021/10/06 00:48:40;;;;;;;4.87;2.00;;;;;;;;;;5051266;28;20635;-75
2021/10/06 00:51:06;;;;;;;8.27;2.40;;;;;;;;;;5031282;28;20174;-75
2021/10/06 00:53:31;;;;;;;8.97;2.27;;;;;;;;;;5051270;28;20201;-75
2021/10/06 00:55:56;;;;;;;8.40;2.40;;;;;;;;;;5048063;28;20174;-75
2021/10/06 00:58:22;;;;;;;4.73;2.10;;;;;;;;;;5051236;28;20173;-75
2021/10/06 01:00:47;;;;;;;6.47;2.30;;;;;;;;;;5050667;28;20181;-75
2021/10/06 01:03:13;;;;;;;4.73;2.40;;;;;;;;;;5053858;28;20204;-75
2021/10/06 01:05:38;;;;;;;5.63;2.20;;;;;;;;;;5049551;28;20185;-76
2021/10/06 01:08:04;;;;;;;5.60;2.60;;;;;;;;;;5052652;28;20261;-77
2021/10/06 01:10:29;;;;;;;6.67;2.30;;;;;;;;;;5049756;28;20185;-75
2021/10/06 01:12:55;;;;;;;6.97;2.50;;;;;;;;;;5052819;28;20743;-75
2021/10/06 01:15:20;;;;;;;8.13;2.80;;;;;;;;;;5053361;28;20173;-76
2021/10/06 01:17:45;;;;;;;5.57;2.30;;;;;;;;;;5044795;28;20185;-76
2021/10/06 01:20:11;;;;;;;5.87;1.93;;;;;;;;;;5050001;28;20170;-77
2021/10/06 01:22:36;;;;;;;7.27;2.10;;;;;;;;;;5051114;28;20205;-75
2021/10/06 01:25:05;;;;;;;5.20;2.33;;;;;;;;;;5049317;28;20185;-76
2021/10/06 01:27:30;;;;;;;6.20;2.00;;;;;;;;;;5024783;28;20651;-76
2021/10/06 01:29:56;;;;;;;8.03;2.07;;;;;;;;;;5028659;28;20244;-76
2021/10/06 01:32:21;;;;;;;5.27;2.17;;;;;;;;;;5047828;28;20245;-75
2021/10/06 01:34:57;;;;;;;5.43;1.77;;;;;;;;;;5047337;28;20181;-75
2021/10/06 01:37:22;;;;;;;4.90;1.30;;;;;;;;;;5052351;28;20181;-76
2021/10/06 01:39:47;;;;;;;3.87;1.03;;;;;;;;;;5034361;28;20235;-75
2021/10/06 01:42:12;;;;;;;3.50;1.00;;;;;;;;;;5054908;23;20332;-74
2021/10/06 01:44:38;;;;;;;8.53;1.10;;;;;;;;;;5066155;28;20170;-74
2021/10/06 01:47:03;;;;;;;7.37;1.20;;;;;;;;;;5071488;28;20654;-74
2021/10/06 01:49:28;;;;;;;7.27;1.40;;;;;;;;;;5071672;28;20169;-73
2021/10/06 01:51:53;;;;;;;8.10;1.20;;;;;;;;;;5069984;28;20215;-74
2021/10/06 01:54:18;;;;;;;6.60;1.30;;;;;;;;;;5032194;28;20598;-75
2021/10/06 01:56:43;;;;;;;4.93;1.27;;;;;;;;;;5053479;28;20177;-75
2021/10/06 01:59:09;;;;;;;4.37;1.43;;;;;;;;;;5045923;28;20225;-77
2021/10/06 02:01:34;;;;;;;8.10;2.17;;;;;;;;;;5029474;28;20186;-76
2021/10/06 02:03:59;;;;;;;4.17;2.23;;;;;;;;;;5043414;28;20710;-76
2021/10/06 02:06:24;;;;;;;4.50;1.17;;;;;;;;;;5034168;28;20166;-75
2021/10/06 02:08:50;;;;;;;5.23;1.87;;;;;;;;;;5047922;28;20560;-76
2021/10/06 02:11:15;;;;;;;6.50;1.73;;;;;;;;;;5050643;28;20298;-76
2021/10/06 02:13:40;;;;;;;9.77;2.13;;;;;;;;;;5039912;28;20239;-76
2021/10/06 02:16:05;;;;;;;5.87;1.40;;;;;;;;;;5046463;28;20173;-77
2021/10/06 02:18:31;;;;;;;5.07;1.43;;;;;;;;;;5046226;28;20174;-76
2021/10/06 02:20:56;;;;;;;6.97;1.60;;;;;;;;;;5048889;28;20182;-76
2021/10/06 02:23:21;;;;;;;10.00;1.70;;;;;;;;;;5023477;28;20585;-76
2021/10/06 02:25:47;;;;;;;5.03;1.20;;;;;;;;;;5046667;28;20170;-76
2021/10/06 02:28:12;;;;;;;6.43;1.87;;;;;;;;;;5025600;28;20675;-76
2021/10/06 02:30:37;;;;;;;4.37;1.70;;;;;;;;;;5042694;28;20170;-77
2021/10/06 02:33:03;;;;;;;4.60;0.90;;;;;;;;;;5051391;28;20203;-76
2021/10/06 02:35:28;;;;;;;6.23;1.00;;;;;;;;;;5044261;28;20188;-77
2021/10/06 02:37:53;;;;;;;3.80;0.97;;;;;;;;;;5046095;28;20247;-77
2021/10/06 02:40:18;;;;;;;2.50;0.80;;;;;;;;;;5049988;28;20186;-76
2021/10/06 02:42:44;;;;;;;4.10;0.60;;;;;;;;;;5040381;28;20212;-77
2021/10/06 02:45:11;;;;;;;8.17;1.17;;;;;;;;;;5049162;28;20185;-76
2021/10/06 02:47:36;;;;;;;4.40;1.20;;;;;;;;;;5044033;28;20189;-77
2021/10/06 02:50:03;;;;;;;7.47;0.90;;;;;;;;;;5042973;28;20178;-77
2021/10/06 02:52:28;;;;;;;1.73;0.70;;;;;;;;;;5049402;28;20578;-77
2021/10/06 02:54:54;;;;;;;3.30;0.50;;;;;;;;;;5046965;28;20185;-77
2021/10/06 02:57:19;;;;;;;8.00;1.10;;;;;;;;;;5053889;28;20185;-77
2021/10/06 02:59:44;;;;;;;4.87;1.07;;;;;;;;;;5041912;28;20651;-78
2021/10/06 03:02:09;;;;;;;2.00;1.00;;;;;;;;;;5045407;28;20201;-77
2021/10/06 03:04:34;;;;;;;2.97;0.73;;;;;;;;;;5046939;28;20610;-78
2021/10/06 03:06:59;;;;;;;3.60;0.60;;;;;;;;;;5048957;28;20582;-78
2021/10/06 03:09:25;;;;;;;6.50;1.00;;;;;;;;;;5048759;28;20264;-77
2021/10/06 03:11:50;;;;;;;3.33;0.80;;;;;;;;;;5031693;28;20227;-79
2021/10/06 03:14:15;;;;;;;2.17;0.60;;;;;;;;;;5046027;28;20837;-80
2021/10/06 03:16:40;;;;;;;10.23;3.30;;;;;;;;;;5045001;28;20685;-79
2021/10/06 03:19:06;;;;;;;5.47;0.93;;;;;;;;;;5050143;28;20212;-80
2021/10/06 03:21:31;;;;;;;2.17;0.80;;;;;;;;;;5046806;28;20199;-79
2021/10/06 03:23:56;;;;;;;4.07;0.90;;;;;;;;;;5045683;28;20269;-78
2021/10/06 03:26:22;;;;;;;4.13;0.87;;;;;;;;;;5053499;28;20173;-80
2021/10/06 03:28:47;;;;;;;5.53;1.10;;;;;;;;;;5041118;28;20185;-78
2021/10/06 03:31:12;;;;;;;2.87;0.90;;;;;;;;;;5045469;28;20224;-79
2021/10/06 03:33:37;;;;;;;6.97;1.33;;;;;;;;;;5043073;28;20281;-79
2021/10/06 03:36:03;;;;;;;1.60;0.53;;;;;;;;;;5031363;28;20177;-79
2021/10/06 03:38:29;;;;;;;2.83;0.87;;;;;;;;;;5046178;28;20205;-78
2021/10/06 03:40:54;;;;;;;6.03;1.07;;;;;;;;;;5042590;28;20182;-79
2021/10/06 03:43:19;;;;;;;2.33;0.70;;;;;;;;;;5049584;28;20638;-77
2021/10/06 03:45:44;;;;;;;1.70;0.87;;;;;;;;;;5048803;28;20180;-77
2021/10/06 03:48:09;;;;;;;4.03;0.87;;;;;;;;;;5047844;28;20193;-78
2021/10/06 03:50:35;;;;;;;4.27;0.80;;;;;;;;;;5046410;28;20250;-78
2021/10/06 03:53:00;;;;;;;4.37;0.80;;;;;;;;;;5048602;28;20717;-78
2021/10/06 03:55:26;;;;;;;4.20;1.50;;;;;;;;;;5046124;28;20173;-78
2021/10/06 03:57:51;;;;;;;5.20;1.17;;;;;;;;;;5032681;28;20177;-76
2021/10/06 04:00:16;;;;;;;3.83;1.10;;;;;;;;;;5045866;28;20268;-77
2021/10/06 04:02:41;;;;;;;4.97;1.30;;;;;;;;;;5045416;28;20251;-78
2021/10/06 04:05:07;;;;;;;5.07;1.30;;;;;;;;;;5044833;28;20178;-77
2021/10/06 04:07:32;;;;;;;3.80;1.03;;;;;;;;;;5050004;28;20664;-77
2021/10/06 04:09:57;;;;;;;6.33;1.37;;;;;;;;;;5032037;28;20538;-77
2021/10/06 04:12:22;;;;;;;5.43;1.17;;;;;;;;;;5051236;28;20704;-78
2021/10/06 04:14:48;;;;;;;2.53;1.07;;;;;;;;;;5046853;28;20178;-77
2021/10/06 04:17:13;;;;;;;7.67;1.27;;;;;;;;;;5045183;28;20460;-78
2021/10/06 04:19:38;;;;;;;6.73;1.40;;;;;;;;;;5049039;28;20186;-77
2021/10/06 04:22:03;;;;;;;5.80;1.20;;;;;;;;;;5031461;28;20205;-78
2021/10/06 04:24:28;;;;;;;11.30;1.43;;;;;;;;;;5033821;28;20209;-77
2021/10/06 04:26:54;;;;;;;4.03;1.20;;;;;;;;;;5044725;28;20170;-78
2021/10/06 04:29:19;;;;;;;6.17;1.40;;;;;;;;;;5044078;28;20188;-77
2021/10/06 04:31:44;;;;;;;5.47;1.33;;;;;;;;;;5041186;28;20201;-78
2021/10/06 04:34:09;;;;;;;8.53;1.43;;;;;;;;;;5048619;28;20265;-76
2021/10/06 04:36:34;;;;;;;5.40;1.00;;;;;;;;;;5033343;28;20178;-78
2021/10/06 04:38:59;;;;;;;4.60;1.17;;;;;;;;;;5036842;28;20236;-77
2021/10/06 04:41:25;;;;;;;6.87;1.60;;;;;;;;;;5048054;28;20242;-78
2021/10/06 04:43:50;;;;;;;7.03;1.50;;;;;;;;;;5053107;28;20225;-77
2021/10/06 04:46:18;;;;;;;5.07;1.40;;;;;;;;;;5040373;28;20171;-78
2021/10/06 04:48:43;;;;;;;11.77;1.90;;;;;;;;;;5023210;28;20173;-76
2021/10/06 04:51:09;;;;;;;5.33;1.80;;;;;;;;;;5036615;28;20225;-78
2021/10/06 04:53:34;;;;;;;7.20;1.80;;;;;;;;;;5043209;28;20210;-78
2021/10/06 04:55:59;;;;;;;6.17;1.50;;;;;;;;;;5035307;28;20265;-77
2021/10/06 04:58:24;;;;;;;4.77;1.57;;;;;;;;;;5024680;28;20177;-78
2021/10/06 05:00:49;;;;;;;11.70;2.57;;;;;;;;;;5037414;28;20178;-78
2021/10/06 05:03:15;;;;;;;11.13;3.43;;;;;;;;;;5036484;28;20250;-77
2021/10/06 05:05:41;;;;;;;7.33;2.27;;;;;;;;;;5046210;28;20177;-77
2021/10/06 05:08:07;;;;;;;5.37;2.23;;;;;;;;;;5035092;28;20177;-77
2021/10/06 05:10:33;;;;;;;14.87;4.00;;;;;;;;;;5044691;28;20177;-77
2021/10/06 05:12:58;;;;;;;6.77;2.40;;;;;;;;;;5043722;28;20367;-76
2021/10/06 05:15:23;;;;;;;6.03;1.90;;;;;;;;;;5041036;28;20204;-77
2021/10/06 05:17:48;;;;;;;6.77;1.87;;;;;;;;;;5041427;28;20174;-78
2021/10/06 05:20:14;;;;;;;6.07;2.00;;;;;;;;;;5046342;28;20204;-77
2021/10/06 05:22:39;;;;;;;6.63;1.70;;;;;;;;;;5046600;28;20197;-77
2021/10/06 05:25:04;;;;;;;7.97;2.00;;;;;;;;;;5041974;28;20178;-76
2021/10/06 05:27:30;;;;;;;5.23;1.90;;;;;;;;;;5056336;28;20181;-76
2021/10/06 05:29:56;;;;;;;4.43;2.73;;;;;;;;;;5056765;28;20169;-76
2021/10/06 05:32:21;;;;;;;11.60;2.30;;;;;;;;;;5053362;28;20209;-77
2021/10/06 05:34:46;;;;;;;3.23;1.73;;;;;;;;;;5040719;28;20260;-76
2021/10/06 05:37:12;;;;;;;5.80;2.13;;;;;;;;;;5024427;28;20224;-77
2021/10/06 05:39:37;;;;;;;4.63;1.73;;;;;;;;;;5051111;28;20552;-77
2021/10/06 05:42:02;;;;;;;13.50;2.73;;;;;;;;;;5043467;28;20208;-76
2021/10/06 05:44:27;;;;;;;8.10;2.07;;;;;;;;;;5038045;28;20184;-77
2021/10/06 05:46:53;;;;;;;4.17;1.90;;;;;;;;;;5048110;28;20165;-77
2021/10/06 05:49:18;;;;;;;5.50;1.70;;;;;;;;;;5033732;28;20185;-76
2021/10/06 05:51:43;;;;;;;8.10;3.03;;;;;;;;;;5036239;28;20209;-76
2021/10/06 05:54:08;;;;;;;8.37;2.13;;;;;;;;;;5049945;28;20573;-77
2021/10/06 05:56:34;;;;;;;7.10;2.00;;;;;;;;;;5050498;28;20659;-77
2021/10/06 05:58:59;;;;;;;9.60;2.60;;;;;;;;;;5065550;28;20357;-76
2021/10/06 06:01:26;;;;;;;11.40;3.57;;;;;;;;;;5047347;28;20201;-77
2021/10/06 06:03:51;;;;;;;7.43;2.30;;;;;;;;;;5048357;28;20258;-76
2021/10/06 06:06:17;;;;;;;6.33;1.70;;;;;;;;;;5055354;28;20255;-77
2021/10/06 06:08:42;;;;;;;7.27;2.23;;;;;;;;;;5059156;28;20172;-76
2021/10/06 06:11:07;;;;;;;6.90;2.00;;;;;;;;;;5053886;28;20165;-77
2021/10/06 06:13:32;;;;;;;6.97;2.07;;;;;;;;;;5047523;28;20217;-77
2021/10/06 06:15:57;;;;;;;9.80;1.93;;;;;;;;;;5046090;28;20165;-76
2021/10/06 06:18:22;;;;;;;8.00;2.40;;;;;;;;;;5044505;28;20173;-76
2021/10/06 06:20:48;;;;;;;12.47;2.20;;;;;;;;;;5045047;28;20190;-77
2021/10/06 06:23:13;;;;;;;9.07;2.67;;;;;;;;;;5021870;28;20277;-76
2021/10/06 06:25:38;;;;;;;8.13;2.10;;;;;;;;;;5043222;28;20178;-76
2021/10/06 06:28:03;;;;;;;12.13;2.00;;;;;;;;;;5049734;28;20406;-77
2021/10/06 06:30:29;;;;;;;8.93;2.50;;;;;;;;;;5046336;28;20383;-74
2021/10/06 06:32:55;;;;;;;9.10;2.27;;;;;;;;;;5021398;28;20210;-73
2021/10/06 06:35:20;;;;;;;9.30;2.57;;;;;;;;;;5051952;28;20169;-76
2021/10/06 06:37:45;;;;;;;10.50;2.20;;;;;;;;;;5040134;28;20170;-75
2021/10/06 06:40:10;;;;;;;8.43;2.17;;;;;;;;;;5046208;28;20181;-77
2021/10/06 06:42:36;;;;;;;8.50;2.73;;;;;;;;;;5039759;28;20209;-76
2021/10/06 06:45:01;;;;;;;10.37;2.77;;;;;;;;;;5042243;28;20288;-77
2021/10/06 06:47:26;;;;;;;14.03;3.03;;;;;;;;;;5054997;28;20615;-77
2021/10/06 06:49:52;;;;;;;8.13;2.23;;;;;;;;;;5032167;28;20178;-77
2021/10/06 06:52:17;;;;;;;11.13;2.50;;;;;;;;;;5048851;28;20205;-75
2021/10/06 06:54:43;;;;;;;12.30;2.50;;;;;;;;;;5028953;28;20171;-76
2021/10/06 06:57:09;;;;;;;11.10;2.80;;;;;;;;;;5059749;28;20166;-77
2021/10/06 06:59:34;;;;;;;10.97;2.40;;;;;;;;;;5031494;28;20715;-77
2021/10/06 07:01:59;;;;;;;7.47;2.40;;;;;;;;;;5016513;28;20247;-77
2021/10/06 07:04:24;;;;;;;6.87;1.93;;;;;;;;;;5036291;28;20185;-78
2021/10/06 07:06:53;;;;;;;12.70;3.10;;;;;;;;;;5036266;28;20654;-76
2021/10/06 07:09:22;;;;;;;8.17;1.90;;;;;;;;;;5044236;28;20185;-77
2021/10/06 07:11:47;;;;;;;12.20;2.30;;;;;;;;;;5040206;28;20216;-76
2021/10/06 07:14:13;;;;;;;9.70;2.20;;;;;;;;;;5030108;28;20178;-77
2021/10/06 07:16:38;;;;;;;12.90;2.93;;;;;;;;;;5030376;28;20177;-77
2021/10/06 07:19:03;;;;;;;10.47;2.30;;;;;;;;;;5046703;28;20167;-77
2021/10/06 07:21:29;;;;;;;9.67;2.13;;;;;;;;;;5031238;28;20744;-77
2021/10/06 07:23:55;;;;;;;9.70;2.67;;;;;;;;;;5030468;28;20202;-78
2021/10/06 07:26:20;;;;;;;7.27;2.07;;;;;;;;;;5047066;28;20252;-77
2021/10/06 07:28:45;;;;;;;9.43;2.23;;;;;;;;;;5049703;28;20399;-77
2021/10/06 07:31:10;;;;;;;11.13;1.80;;;;;;;;;;5052996;28;20289;-76
2021/10/06 07:33:35;;;;;;;8.10;2.07;;;;;;;;;;5048826;28;20204;-75
2021/10/06 07:36:01;;;;;;;5.40;1.80;;;;;;;;;;5030687;28;20184;-77
2021/10/06 07:38:26;;;;;;;6.93;1.90;;;;;;;;;;5045394;28;20257;-76
2021/10/06 07:40:51;;;;;;;7.93;2.27;;;;;;;;;;5044663;28;20276;-77
2021/10/06 07:43:17;;;;;;;11.03;2.87;;;;;;;;;;5081022;23;20316;-79
2021/10/06 07:45:46;;;;;;;6.00;1.57;;;;;;;;;;5094981;28;20472;-80
2021/10/06 07:48:11;;;;;;;15.53;2.77;;;;;;;;;;5091892;28;20267;-79
2021/10/06 07:50:36;;;;;;;11.93;2.40;;;;;;;;;;5093508;28;20200;-78
2021/10/06 07:53:01;;;;;;;8.10;2.27;;;;;;;;;;5086309;28;20207;-79
2021/10/06 07:55:27;;;;;;;7.53;2.07;;;;;;;;;;5094766;28;20183;-79
2021/10/06 07:57:52;;;;;;;4.87;2.07;;;;;;;;;;5089641;28;20175;-77
2021/10/06 08:00:17;;;;;;;7.00;1.70;;;;;;;;;;5084348;28;20643;-78
2021/10/06 08:02:42;;;;;;;8.03;2.10;;;;;;;;;;5091907;28;20207;-79
2021/10/06 08:05:08;;;;;;;7.63;2.03;;;;;;;;;;5088498;28;20176;-79
2021/10/06 08:07:33;;;;;;;7.23;2.17;;;;;;;;;;5095600;28;20173;-79
2021/10/06 08:09:58;;;;;;;7.03;1.90;;;;;;;;;;5085468;28;20263;-78
2021/10/06 08:12:23;;;;;;;5.30;1.90;;;;;;;;;;5097988;28;20596;-80
2021/10/06 08:14:48;;;;;;;2.37;1.10;;;;;;;;;;5097145;28;20177;-78
2021/10/06 08:17:13;;;;;;;4.40;1.10;;;;;;;;;;5089916;28;20556;-77
2021/10/06 08:19:39;;;;;;;2.00;0.67;;;;;;;;;;5087622;28;20393;-79
2021/10/06 08:22:04;;;;;;;5.10;0.83;;;;;;;;;;5094062;28;20180;-78
2021/10/06 08:24:30;;;;;;;4.47;0.60;;;;;;;;;;5090650;28;20185;-78
2021/10/06 08:26:55;;;;;;;2.00;0.80;;;;;;;;;;5094356;28;20203;-78
2021/10/06 08:29:20;;;;;;;3.63;0.67;;;;;;;;;;5088566;28;20173;-78
2021/10/06 08:31:45;;;;;;;3.37;0.53;;;;;;;;;;5091589;28;20172;-77
2021/10/06 08:34:10;;;;;;;3.30;1.40;;;;;;;;;;5082407;28;20243;-78
2021/10/06 08:36:37;;;;;;;1.63;0.40;;;;;;;;;;5096481;28;20164;-78
2021/10/06 08:39:03;;;;;;;2.50;0.83;;;;;;;;;;5091644;28;20649;-78
2021/10/06 08:41:31;;;;;;;1.30;0.60;;;;;;;;;;5099306;28;20218;-78
2021/10/06 08:43:57;;;;;;;0.70;0.60;;;;;;;;;;5095409;28;20207;-78
2021/10/06 08:46:22;;;;;;;2.40;0.73;;;;;;;;;;5098931;28;20649;-78
2021/10/06 08:48:50;;;;;;;2.97;1.00;;;;;;;;;;5096772;28;20168;-78
2021/10/06 08:51:15;;;;;;;4.37;1.00;;;;;;;;;;5095427;28;20199;-78
2021/10/06 08:53:40;;;;;;;3.67;0.90;;;;;;;;;;5092638;28;20264;-78
2021/10/06 08:56:05;;;;;;;6.80;1.80;;;;;;;;;;5096510;28;20399;-78
2021/10/06 08:58:30;;;;;;;7.40;1.35;;;;;;;;;;5096225;28;20650;-77
2021/10/06 09:00:56;;;;;;;7.95;2.28;;;;;;;;;;5098163;28;20175;-77
2021/10/06 09:03:25;;;;;;;5.28;1.52;;;;;;;;;;5091102;28;20227;-78
2021/10/06 09:06:10;;;;;;;5.25;1.77;;;;;;;;;;5093576;28;20267;-78
2021/10/06 09:08:36;;;;;;;5.78;1.67;;;;;;;;;;5103536;28;20176;-78
2021/10/06 09:11:02;;;;;;;5.03;1.92;;;;;;;;;;5093737;28;20435;-78
2021/10/06 09:13:29;;;;;;;6.28;1.58;;;;;;;;;;5097723;28;20322;-79
2021/10/06 09:15:54;;;;;;;3.58;1.42;;;;;;;;;;5098046;28;20172;-80
2021/10/06 09:18:23;;;;;;;4.65;1.10;;;;;;;;;;5096631;28;20203;-80
2021/10/06 09:20:50;;;;;;;2.05;0.82;;;;;;;;;;5113556;28;20169;-78
2021/10/06 09:23:16;;;;;;;3.25;0.68;;;;;;;;;;5100285;28;20263;-79
2021/10/06 09:25:47;;;;;;;0.90;0.60;;;;;;;;;;5093813;28;20180;-78
2021/10/06 09:28:18;;;;;;;1.75;0.52;;;;;;;;;;5095369;28;20276;-78
2021/10/06 09:30:43;;;;;;;4.13;0.88;;;;;;;;;;5098749;28;20175;-79
2021/10/06 09:33:08;;;;;;;4.05;1.20;;;;;;;;;;5094872;28;20578;-78
2021/10/06 09:35:33;;;;;;;3.05;1.48;;;;;;;;;;5103287;28;20187;-79
2021/10/06 09:37:58;;;;;;;3.55;1.30;;;;;;;;;;5097046;28;20177;-79
2021/10/06 09:40:25;;;;;;;5.38;1.30;;;;;;;;;;5096495;28;20168;-78
2021/10/06 09:42:55;;;;;;;4.28;1.30;;;;;;;;;;5094626;28;20214;-78
2021/10/06 09:45:29;;;;;;;3.33;1.20;;;;;;;;;;5110072;28;20179;-78
2021/10/06 09:48:10;;;;;;;3.10;0.73;;;;;;;;;;5103465;28;20263;-77
2021/10/06 09:50:40;;;;;;;4.05;0.90;;;;;;;;;;5111570;28;20181;-78
2021/10/06 09:53:07;;;;;;;3.30;1.10;;;;;;;;;;5112339;28;20266;-77
2021/10/06 09:55:33;;;;;;;5.95;1.85;;;;;;;;;;5115831;28;20169;-78
2021/10/06 09:57:59;;;;;;;3.90;1.00;;;;;;;;;;5115333;28;20196;-76
2021/10/06 10:00:24;;;;;;;4.97;1.45;;;;;;;;;;5115240;28;20186;-77
2021/10/06 10:02:49;;;;;;;4.22;1.40;;;;;;;;;;5097512;28;20196;-77
2021/10/06 10:05:15;;;;;;;4.88;1.38;;;;;;;;;;5096460;28;20245;-77
2021/10/06 10:07:41;;;;;;;6.38;2.45;;;;;;;;;;5091262;28;20172;-77
2021/10/06 10:10:07;;;;;;;5.00;1.38;;;;;;;;;;5086476;28;20218;-77
2021/10/06 10:12:32;;;;;;;4.82;1.77;;;;;;;;;;5088621;28;20204;-78
2021/10/06 10:14:58;;;;;;;13.52;2.40;;;;;;;;;;5094368;28;20542;-76
2021/10/06 10:17:23;;;;;;;5.35;1.98;;;;;;;;;;5093287;28;20181;-79
2021/10/06 10:19:56;;;;;;;10.13;2.00;;;;;;;;;;5083435;28;20177;-76
2021/10/06 10:22:21;;;;;;;9.27;1.88;;;;;;;;;;5091477;28;20562;-80
2021/10/06 10:24:48;;;;;;;13.18;2.13;;;;;;;;;;5094682;28;20179;-76
2021/10/06 10:27:14;;;;;;;8.68;1.42;;;;;;;;;;5088961;28;20176;-77
2021/10/06 10:29:42;;;;;;;10.52;1.77;;;;;;;;;;5082161;28;20165;-74
2021/10/06 10:32:12;;;;;;;13.38;1.88;;;;;;;;;;5087672;28;20838;-75
2021/10/06 10:34:58;;;;;;;11.77;1.50;;;;;;;;;;5078550;28;20366;-80
2021/10/06 10:37:42;;;;;;;10.80;1.83;;;;;;;;;;5090559;28;20173;-76
2021/10/06 10:40:27;;;;;;;11.40;2.00;;;;;;;;;;5086326;28;20265;-76
2021/10/06 10:43:08;;;;;;;8.70;2.00;;;;;;;;;;5087616;28;20236;-78
2021/10/06 10:45:43;;;;;;;9.88;2.10;;;;;;;;;;5081790;28;20183;-77
2021/10/06 10:48:10;;;;;;;8.30;1.88;;;;;;;;;;5083062;28;20204;-75
2021/10/06 10:50:41;;;;;;;12.57;2.05;;;;;;;;;;5086960;28;20549;-74
2021/10/06 10:53:07;;;;;;;11.07;2.13;;;;;;;;;;5088672;28;20742;-76
2021/10/06 10:56:00;;;;;;;7.10;1.67;;;;;;;;;;5085053;28;20177;-77
2021/10/06 10:58:28;;;;;;;8.02;1.60;;;;;;;;;;5091720;28;20653;-73
2021/10/06 11:00:54;;;;;;;8.23;1.50;;;;;;;;;;5088457;28;20172;-76
2021/10/06 11:03:19;;;;;;;10.82;1.80;;;;;;;;;;5090930;28;20253;-73
2021/10/06 11:05:45;;;;;;;7.03;1.63;;;;;;;;;;5090457;28;20283;-74
2021/10/06 11:08:21;;;;;;;10.98;1.88;;;;;;;;;;5086675;28;20180;-76
2021/10/06 11:10:46;;;;;;;7.60;1.70;;;;;;;;;;5090099;28;20180;-74
2021/10/06 11:13:14;;;;;;;8.65;1.83;;;;;;;;;;5084372;28;20207;-73
2021/10/06 11:15:45;;;;;;;10.68;3.22;;;;;;;;;;5088318;28;20172;-73
2021/10/06 11:18:13;;;;;;;7.10;1.27;;;;;;;;;;5089998;28;20227;-78
2021/10/06 11:20:58;;;;;;;7.65;1.10;;;;;;;;;;5084414;28;20191;-73
2021/10/06 11:23:42;;;;;;;7.63;1.63;;;;;;;;;;5086727;28;20309;-74
2021/10/06 11:26:14;;;;;;;6.93;1.10;;;;;;;;;;5088146;28;20224;-73
2021/10/06 11:28:40;;;;;;;4.95;1.48;;;;;;;;;;5089049;28;20567;-73
2021/10/06 11:31:05;;;;;;;6.38;1.27;;;;;;;;;;5084320;28;20183;-76
2021/10/06 11:33:31;;;;;;;5.20;1.20;;;;;;;;;;5089831;28;20207;-75
2021/10/06 11:36:10;;;;;;;6.80;1.50;;;;;;;;;;5086419;28;20164;-76
2021/10/06 11:38:36;;;;;;;4.80;1.17;;;;;;;;;;5088072;28;20175;-74
2021/10/06 11:41:01;;;;;;;7.82;1.50;;;;;;;;;;5088607;28;20169;-73
2021/10/06 11:43:35;;;;;;;6.78;1.80;;;;;;;;;;5088226;28;20212;-73
2021/10/06 11:46:01;;;;;;;6.68;1.27;;;;;;;;;;5087135;28;20183;-72
2021/10/06 11:48:26;;;;;;;9.98;2.03;;;;;;;;;;5082551;28;20192;-73
2021/10/06 11:50:51;;;;;;;7.10;1.30;;;;;;;;;;5080273;28;20698;-72
2021/10/06 11:53:16;;;;;;;7.70;1.40;;;;;;;;;;5083520;28;20220;-74
2021/10/06 11:55:48;;;;;;;5.60;0.88;;;;;;;;;;5091564;28;20431;-72
2021/10/06 11:58:33;;;;;;;4.00;0.80;;;;;;;;;;5089490;28;20232;-74
2021/10/06 12:01:05;;;;;;;2.33;0.57;;;;;;;;;;5087319;28;20168;-73
2021/10/06 12:03:35;;;;;;;2.92;0.63;;;;;;;;;;5088853;28;20672;-72
2021/10/06 12:06:00;;;;;;;5.60;1.40;;;;;;;;;;5088334;28;20270;-72
2021/10/06 12:08:26;;;;;;;5.72;1.02;;;;;;;;;;5094533;28;20268;-72
2021/10/06 12:10:51;;;;;;;4.22;1.13;;;;;;;;;;5080672;28;20180;-74
2021/10/06 12:13:32;;;;;;;4.38;1.27;;;;;;;;;;5089469;28;21739;-74
2021/10/06 12:15:58;;;;;;;5.70;1.00;;;;;;;;;;5089450;28;20263;-73
2021/10/06 12:18:23;;;;;;;6.40;1.17;;;;;;;;;;5088153;28;20259;-73
2021/10/06 12:20:48;;;;;;;4.93;1.38;;;;;;;;;;5085860;28;20556;-74
2021/10/06 12:23:21;;;;;;;5.47;1.20;;;;;;;;;;5091134;28;20286;-73
2021/10/06 12:25:51;;;;;;;6.68;1.05;;;;;;;;;;5092963;28;20941;-73
2021/10/06 12:28:18;;;;;;;7.25;0.90;;;;;;;;;;5091156;28;20211;-73
2021/10/06 12:30:50;;;;;;;6.43;1.10;;;;;;;;;;5090960;28;20172;-73
2021/10/06 12:33:16;;;;;;;5.30;1.50;;;;;;;;;;5087769;28;20567;-73
2021/10/06 12:35:43;;;;;;;5.55;1.08;;;;;;;;;;5085558;28;20171;-73
2021/10/06 12:38:08;;;;;;;3.95;1.58;;;;;;;;;;5085568;28;20183;-73
2021/10/06 12:40:35;;;;;;;5.75;1.10;;;;;;;;;;5092493;28;20567;-74
2021/10/06 12:43:12;;;;;;;7.32;1.98;;;;;;;;;;5088847;28;20239;-73
2021/10/06 12:45:57;;;;;;;4.43;1.30;;;;;;;;;;5091065;28;20187;-73
2021/10/06 12:48:32;;;;;;;7.93;1.42;;;;;;;;;;5080499;28;20208;-72
2021/10/06 12:50:57;;;;;;;7.82;1.30;;;;;;;;;;5094134;28;20555;-74
2021/10/06 12:53:22;;;;;;;5.32;1.10;;;;;;;;;;5090259;28;20204;-73
2021/10/06 12:55:47;;;;;;;8.63;1.23;;;;;;;;;;5091967;28;20649;-74
2021/10/06 12:58:14;;;;;;;7.10;1.10;;;;;;;;;;5093006;28;20417;-77
2021/10/06 13:00:39;;;;;;;3.10;0.80;;;;;;;;;;5095143;28;20428;-72
2021/10/06 13:03:05;;;;;;;2.70;0.77;;;;;;;;;;5097347;28;20252;-75
2021/10/06 13:05:31;;;;;;;9.70;1.98;;;;;;;;;;5082434;28;20251;-75
2021/10/06 13:07:56;;;;;;;5.40;1.65;;;;;;;;;;5084846;28;20377;-75
2021/10/06 13:10:21;;;;;;;4.60;1.00;;;;;;;;;;5093498;28;20723;-73
2021/10/06 13:12:46;;;;;;;3.72;1.00;;;;;;;;;;5095984;28;20459;-73
2021/10/06 13:15:12;;;;;;;5.13;1.00;;;;;;;;;;5100093;28;20177;-74
2021/10/06 13:17:37;;;;;;;3.88;1.42;;;;;;;;;;5099718;28;20192;-75
2021/10/06 13:20:03;;;;;;;6.07;1.70;;;;;;;;;;5103676;28;20268;-74
2021/10/06 13:22:28;;;;;;;4.82;1.00;;;;;;;;;;5100886;28;20200;-73
2021/10/06 13:24:54;;;;;;;8.73;1.63;;;;;;;;;;5102506;28;20183;-73
2021/10/06 13:27:19;;;;;;;6.25;1.42;;;;;;;;;;5097113;28;20184;-73
2021/10/06 13:29:44;;;;;;;5.03;1.23;;;;;;;;;;5088308;28;20642;-76
2021/10/06 13:32:09;;;;;;;2.88;1.05;;;;;;;;;;5082980;28;20531;-73
2021/10/06 13:34:34;;;;;;;7.20;1.77;;;;;;;;;;5092010;28;20182;-73
2021/10/06 13:36:59;;;;;;;4.18;1.38;;;;;;;;;;5085927;28;20424;-73
2021/10/06 13:39:25;;;;;;;6.53;1.70;;;;;;;;;;5092364;28;20202;-73
2021/10/06 13:41:50;;;;;;;6.28;1.58;;;;;;;;;;5091631;28;20172;-73
2021/10/06 13:44:16;;;;;;;8.82;1.48;;;;;;;;;;5079616;22;20233;-75
2021/10/06 13:46:43;;;;;;;6.40;1.55;;;;;;;;;;5041489;28;20170;-76
2021/10/06 13:49:08;;;;;;;6.47;1.98;;;;;;;;;;5053261;28;20166;-75
2021/10/06 13:51:33;;;;;;;9.25;3.17;;;;;;;;;;5054759;28;20173;-78
2021/10/06 13:53:59;;;;;;;13.23;2.20;;;;;;;;;;5048039;28;20232;-79
2021/10/06 13:56:25;;;;;;;8.50;1.75;;;;;;;;;;5069958;28;20489;-79
2021/10/06 13:58:51;;;;;;;9.82;3.42;;;;;;;;;;5070332;28;20173;-77
2021/10/06 14:01:17;;;;;;;9.73;2.10;;;;;;;;;;5065868;28;20166;-80
2021/10/06 14:03:43;;;;;;;7.25;1.88;;;;;;;;;;5051229;28;20276;-79
2021/10/06 14:06:08;;;;;;;9.60;1.70;;;;;;;;;;5073402;28;20204;-77
2021/10/06 14:08:33;;;;;;;7.65;2.20;;;;;;;;;;5068542;28;20280;-78
2021/10/06 14:10:59;;;;;;;7.15;2.03;;;;;;;;;;5045984;28;20208;-78
2021/10/06 14:13:24;;;;;;;6.50;1.45;;;;;;;;;;5051807;28;20207;-77
2021/10/06 14:15:49;;;;;;;5.82;1.77;;;;;;;;;;5071974;28;20557;-77
2021/10/06 14:18:15;;;;;;;8.55;1.60;;;;;;;;;;5069415;28;20280;-78
2021/10/06 14:20:42;;;;;;;5.82;1.45;;;;;;;;;;5067404;28;20302;-77
2021/10/06 14:23:07;;;;;;;8.23;1.65;;;;;;;;;;5066631;28;20201;-76
2021/10/06 14:25:32;;;;;;;5.63;1.63;;;;;;;;;;5064315;28;20178;-78
2021/10/06 14:27:57;;;;;;;8.50;1.92;;;;;;;;;;5069370;28;20420;-79
2021/10/06 14:30:22;;;;;;;7.18;1.42;;;;;;;;;;5068097;28;20173;-76
2021/10/06 14:32:48;;;;;;;9.63;2.95;;;;;;;;;;5066118;28;20204;-77
2021/10/06 14:35:14;;;;;;;9.60;1.88;;;;;;;;;;5066379;28;20188;-78